Time;durP1;ratioP1;P1;durP2;ratioP2;P2;SDS_P1;SDS_P2;PMS_P1;PMS_P2;Temp;Humidity;BMP_temperature;BMP_pressure;BME280_temperature;BME280_humidity;BME280_pressure;Samples;Min_cycle;Max_cycle;Signal;HPM_P1;HPM_P2
2021/08/16 00:00:55;;;;;;;7.07;6.57;;;;;;;;;;4978918;28;24942;-63
2021/08/16 00:03:20;;;;;;;6.20;5.80;;;;;;;;;;4978885;28;24958;-63
2021/08/16 00:05:45;;;;;;;6.80;6.30;;;;;;;;;;4978549;28;24949;-63
2021/08/16 00:08:10;;;;;;;7.07;6.47;;;;;;;;;;4984163;28;24441;-63
2021/08/16 00:10:36;;;;;;;6.47;5.97;;;;;;;;;;4983858;28;24919;-63
2021/08/16 00:13:02;;;;;;;6.90;6.30;;;;;;;;;;4978881;28;24408;-63
2021/08/16 00:15:27;;;;;;;6.00;5.60;;;;;;;;;;4978787;28;25041;-62
2021/08/16 00:17:52;;;;;;;6.40;5.90;;;;;;;;;;4978964;28;24393;-63
2021/08/16 00:20:17;;;;;;;6.60;6.10;;;;;;;;;;4984083;28;24401;-63
2021/08/16 00:22:42;;;;;;;7.13;6.63;;;;;;;;;;4987148;28;25358;-63
2021/08/16 00:25:07;;;;;;;7.00;6.40;;;;;;;;;;4982261;28;24428;-62
2021/08/16 00:27:34;;;;;;;7.10;6.60;;;;;;;;;;4983988;28;24467;-63
2021/08/16 00:29:59;;;;;;;7.20;6.70;;;;;;;;;;4982177;28;24493;-63
2021/08/16 00:32:24;;;;;;;7.20;6.60;;;;;;;;;;4981753;28;25022;-63
2021/08/16 00:34:50;;;;;;;7.93;7.30;;;;;;;;;;4985359;28;24388;-63
2021/08/16 00:37:15;;;;;;;6.80;6.30;;;;;;;;;;4987393;28;24407;-63
2021/08/16 00:39:40;;;;;;;7.10;6.60;;;;;;;;;;4983482;28;24946;-63
2021/08/16 00:42:09;;;;;;;6.97;6.47;;;;;;;;;;4981546;28;24393;-63
2021/08/16 00:44:34;;;;;;;7.35;6.75;;;;;;;;;;4982095;28;24948;-63
2021/08/16 00:46:59;;;;;;;7.10;6.60;;;;;;;;;;4981923;28;24920;-63
2021/08/16 00:49:24;;;;;;;6.37;5.87;;;;;;;;;;4986822;28;24411;-63
2021/08/16 00:51:49;;;;;;;7.35;6.65;;;;;;;;;;4985060;28;24467;-63
2021/08/16 00:54:15;;;;;;;7.60;7.00;;;;;;;;;;4985016;28;24515;-63
2021/08/16 00:56:40;;;;;;;7.70;7.10;;;;;;;;;;4983326;28;24401;-62
2021/08/16 00:59:05;;;;;;;7.50;6.93;;;;;;;;;;4981372;28;24404;-62
2021/08/16 01:01:31;;;;;;;7.55;6.88;;;;;;;;;;4981195;28;24837;-63
2021/08/16 01:03:56;;;;;;;8.00;7.40;;;;;;;;;;4982951;28;24381;-63
2021/08/16 01:06:21;;;;;;;8.07;7.47;;;;;;;;;;4986638;28;24953;-63
2021/08/16 01:08:47;;;;;;;8.03;7.43;;;;;;;;;;4982648;28;24417;-62
2021/08/16 01:11:12;;;;;;;8.30;7.70;;;;;;;;;;4981306;28;24389;-63
2021/08/16 01:13:37;;;;;;;7.70;7.00;;;;;;;;;;4982836;28;24488;-62
2021/08/16 01:16:04;;;;;;;7.77;7.17;;;;;;;;;;4982899;28;25002;-63
2021/08/16 01:18:32;;;;;;;6.97;6.43;;;;;;;;;;4968644;28;24980;-62
2021/08/16 01:20:57;;;;;;;6.97;6.47;;;;;;;;;;4984387;28;24408;-62
2021/08/16 01:23:22;;;;;;;9.40;8.60;;;;;;;;;;4980897;28;24491;-62
2021/08/16 01:25:48;;;;;;;9.00;8.20;;;;;;;;;;4980446;28;24420;-62
2021/08/16 01:28:17;;;;;;;7.80;7.20;;;;;;;;;;4982624;28;24508;-62
2021/08/16 01:30:42;;;;;;;7.82;7.22;;;;;;;;;;4981911;28;24765;-62
2021/08/16 01:33:08;;;;;;;8.80;8.00;;;;;;;;;;4985714;28;25001;-62
2021/08/16 01:35:33;;;;;;;7.00;6.50;;;;;;;;;;4986213;28;24409;-62
2021/08/16 01:37:58;;;;;;;8.20;7.50;;;;;;;;;;4980626;28;24524;-62
2021/08/16 01:40:23;;;;;;;8.80;8.20;;;;;;;;;;4980529;28;24393;-62
2021/08/16 01:42:49;;;;;;;8.47;7.67;;;;;;;;;;4980469;28;24397;-62
2021/08/16 01:45:14;;;;;;;8.00;7.40;;;;;;;;;;4985889;28;24393;-63
2021/08/16 01:47:39;;;;;;;7.93;7.10;;;;;;;;;;4985867;28;24951;-63
2021/08/16 01:50:04;;;;;;;8.30;7.70;;;;;;;;;;4980324;28;24468;-63
2021/08/16 01:52:29;;;;;;;8.80;8.20;;;;;;;;;;4980170;28;24408;-63
2021/08/16 01:54:55;;;;;;;8.07;7.47;;;;;;;;;;4979881;28;24441;-63
2021/08/16 01:57:20;;;;;;;8.60;7.90;;;;;;;;;;4982248;28;24400;-62
2021/08/16 01:59:45;;;;;;;8.00;7.40;;;;;;;;;;4985459;28;24412;-63
2021/08/16 02:02:10;;;;;;;8.10;7.50;;;;;;;;;;4981881;28;25285;-63
2021/08/16 02:04:35;;;;;;;7.95;7.35;;;;;;;;;;4981761;28;24404;-63
2021/08/16 02:07:02;;;;;;;8.32;7.63;;;;;;;;;;4980126;28;24389;-63
2021/08/16 02:09:28;;;;;;;9.00;8.20;;;;;;;;;;4981800;28;24958;-62
2021/08/16 02:11:53;;;;;;;8.00;7.40;;;;;;;;;;4983493;28;24487;-62
2021/08/16 02:14:18;;;;;;;7.85;7.35;;;;;;;;;;4983741;28;24738;-62
2021/08/16 02:16:43;;;;;;;7.73;7.13;;;;;;;;;;4981905;28;24455;-62
2021/08/16 02:19:08;;;;;;;8.77;8.00;;;;;;;;;;4979713;28;24959;-61
2021/08/16 02:21:34;;;;;;;8.23;7.70;;;;;;;;;;4980124;28;24409;-61
2021/08/16 02:23:59;;;;;;;8.50;7.80;;;;;;;;;;4983031;28;24532;-61
2021/08/16 02:26:24;;;;;;;8.70;8.10;;;;;;;;;;4985009;28;24497;-61
2021/08/16 02:28:49;;;;;;;9.33;8.53;;;;;;;;;;4979356;28;24516;-62
2021/08/16 02:31:20;;;;;;;8.13;7.45;;;;;;;;;;4979605;28;24396;-62
2021/08/16 02:33:45;;;;;;;8.65;7.97;;;;;;;;;;4981309;28;24389;-62
2021/08/16 02:36:10;;;;;;;9.40;8.70;;;;;;;;;;4984900;28;24400;-61
2021/08/16 02:38:36;;;;;;;9.57;8.80;;;;;;;;;;4983073;28;24998;-62
2021/08/16 02:41:01;;;;;;;9.10;8.30;;;;;;;;;;4979651;28;24401;-61
2021/08/16 02:43:28;;;;;;;9.25;8.55;;;;;;;;;;4978425;28;24401;-62
2021/08/16 02:45:53;;;;;;;8.40;7.70;;;;;;;;;;4979396;28;24389;-61
2021/08/16 02:48:18;;;;;;;7.50;6.90;;;;;;;;;;4982768;28;24522;-61
2021/08/16 02:50:43;;;;;;;8.33;7.73;;;;;;;;;;4984565;28;24962;-61
2021/08/16 02:53:08;;;;;;;8.50;7.90;;;;;;;;;;4979273;28;24393;-61
2021/08/16 02:55:34;;;;;;;8.30;7.68;;;;;;;;;;4981160;28;24472;-62
2021/08/16 02:57:59;;;;;;;8.17;7.57;;;;;;;;;;4979307;28;24436;-62
2021/08/16 03:00:24;;;;;;;8.90;8.20;;;;;;;;;;4980988;28;24491;-62
2021/08/16 03:02:49;;;;;;;8.30;7.60;;;;;;;;;;4984179;28;24393;-62
2021/08/16 03:05:14;;;;;;;9.07;8.37;;;;;;;;;;4981677;28;25187;-62
2021/08/16 03:07:39;;;;;;;8.70;8.00;;;;;;;;;;4980978;28;24955;-62
2021/08/16 03:10:09;;;;;;;8.67;8.07;;;;;;;;;;4978750;28;24463;-62
2021/08/16 03:12:34;;;;;;;9.18;8.45;;;;;;;;;;4982754;28;24476;-62
2021/08/16 03:14:59;;;;;;;9.57;8.77;;;;;;;;;;4982573;28;24577;-62
2021/08/16 03:17:24;;;;;;;8.57;7.97;;;;;;;;;;4982304;28;24932;-62
2021/08/16 03:19:50;;;;;;;8.23;7.53;;;;;;;;;;4979059;28;24420;-62
2021/08/16 03:22:15;;;;;;;7.80;7.20;;;;;;;;;;4980914;28;24397;-62
2021/08/16 03:24:40;;;;;;;7.70;7.10;;;;;;;;;;4982782;28;24405;-62
2021/08/16 03:27:06;;;;;;;7.97;7.47;;;;;;;;;;4982249;28;24413;-62
2021/08/16 03:29:31;;;;;;;7.80;7.30;;;;;;;;;;4981163;28;24990;-62
2021/08/16 03:32:00;;;;;;;8.50;7.80;;;;;;;;;;4978384;28;24417;-62
2021/08/16 03:34:25;;;;;;;8.30;7.60;;;;;;;;;;4978996;28;24496;-62
2021/08/16 03:36:50;;;;;;;7.90;7.30;;;;;;;;;;4982322;28;24596;-63
2021/08/16 03:39:16;;;;;;;8.47;7.87;;;;;;;;;;4984233;28;24496;-63
2021/08/16 03:41:41;;;;;;;8.47;7.77;;;;;;;;;;4982722;28;24451;-62
2021/08/16 03:44:06;;;;;;;7.90;7.30;;;;;;;;;;4978904;28;24400;-63
2021/08/16 03:46:31;;;;;;;8.20;7.50;;;;;;;;;;4978951;28;24933;-63
2021/08/16 03:48:56;;;;;;;8.10;7.50;;;;;;;;;;4980489;28;24468;-63
2021/08/16 03:51:22;;;;;;;8.57;7.97;;;;;;;;;;4984169;28;24821;-63
2021/08/16 03:53:47;;;;;;;8.03;7.43;;;;;;;;;;4982056;28;24475;-63
2021/08/16 03:56:12;;;;;;;7.90;7.30;;;;;;;;;;4984608;28;25016;-62
2021/08/16 03:58:40;;;;;;;7.40;6.90;;;;;;;;;;4982826;28;24451;-62
2021/08/16 04:01:05;;;;;;;8.48;7.85;;;;;;;;;;4982208;28;24408;-62
2021/08/16 04:03:30;;;;;;;7.55;7.00;;;;;;;;;;4984110;28;24485;-62
2021/08/16 04:05:55;;;;;;;7.60;7.00;;;;;;;;;;4986205;28;24468;-62
2021/08/16 04:08:20;;;;;;;8.10;7.50;;;;;;;;;;4986153;28;24844;-62
2021/08/16 04:10:45;;;;;;;8.03;7.50;;;;;;;;;;4982392;28;24546;-62
2021/08/16 04:13:11;;;;;;;7.97;7.27;;;;;;;;;;4983753;28;24393;-62
2021/08/16 04:15:36;;;;;;;8.00;7.40;;;;;;;;;;4982351;28;24405;-62
2021/08/16 04:18:01;;;;;;;7.90;7.30;;;;;;;;;;4985763;28;24836;-62
2021/08/16 04:20:26;;;;;;;7.60;7.00;;;;;;;;;;4987628;28;24745;-62
2021/08/16 04:22:51;;;;;;;8.10;7.40;;;;;;;;;;4982360;28;24405;-62
2021/08/16 04:25:18;;;;;;;7.00;6.50;;;;;;;;;;4982140;28;24405;-62
2021/08/16 04:27:43;;;;;;;8.10;7.50;;;;;;;;;;4983953;28;24955;-62
2021/08/16 04:30:09;;;;;;;8.20;7.60;;;;;;;;;;4981797;28;24416;-62
2021/08/16 04:32:34;;;;;;;8.68;8.07;;;;;;;;;;4987143;28;24397;-63
2021/08/16 04:34:59;;;;;;;7.43;6.93;;;;;;;;;;4985436;28;24408;-63
2021/08/16 04:37:24;;;;;;;8.70;7.90;;;;;;;;;;4982068;28;24472;-63
2021/08/16 04:39:49;;;;;;;8.30;7.50;;;;;;;;;;4982510;28;24400;-62
2021/08/16 04:42:14;;;;;;;8.80;8.10;;;;;;;;;;4987172;28;24420;-62
2021/08/16 04:44:40;;;;;;;9.30;8.60;;;;;;;;;;4986917;28;24472;-62
2021/08/16 04:47:05;;;;;;;8.60;8.00;;;;;;;;;;4981431;28;24405;-62
2021/08/16 04:49:30;;;;;;;8.18;7.68;;;;;;;;;;4981722;28;24512;-62
2021/08/16 04:51:55;;;;;;;8.30;7.60;;;;;;;;;;4981524;28;24456;-63
2021/08/16 04:54:20;;;;;;;9.67;8.77;;;;;;;;;;4983127;28;24515;-63
2021/08/16 04:56:45;;;;;;;9.80;8.90;;;;;;;;;;4985177;28;24493;-61
2021/08/16 04:59:10;;;;;;;8.90;8.10;;;;;;;;;;4984852;28;24432;-63
2021/08/16 05:01:37;;;;;;;8.80;8.10;;;;;;;;;;4983029;28;24740;-63
2021/08/16 05:04:02;;;;;;;9.57;8.82;;;;;;;;;;4981147;28;24437;-63
2021/08/16 05:06:32;;;;;;;8.60;8.00;;;;;;;;;;4984174;28;24428;-63
2021/08/16 05:08:58;;;;;;;8.27;7.60;;;;;;;;;;4984687;28;24409;-62
2021/08/16 05:11:24;;;;;;;7.90;7.30;;;;;;;;;;4983046;28;24456;-63
2021/08/16 05:13:49;;;;;;;6.90;6.30;;;;;;;;;;4981318;28;24777;-62
2021/08/16 05:16:15;;;;;;;8.87;8.17;;;;;;;;;;4981724;28;25653;-63
2021/08/16 05:18:40;;;;;;;7.68;7.18;;;;;;;;;;4982951;28;24471;-63
2021/08/16 05:21:05;;;;;;;7.90;7.30;;;;;;;;;;4984620;28;24417;-63
2021/08/16 05:23:30;;;;;;;9.45;8.65;;;;;;;;;;4986197;28;24416;-63
2021/08/16 05:25:55;;;;;;;7.17;6.67;;;;;;;;;;4981052;28;24493;-63
2021/08/16 05:28:22;;;;;;;8.73;7.97;;;;;;;;;;4980938;28;24464;-63
2021/08/16 05:30:47;;;;;;;7.55;6.90;;;;;;;;;;4982552;28;24484;-64
2021/08/16 05:33:12;;;;;;;8.32;7.63;;;;;;;;;;4980738;28;24425;-64
2021/08/16 05:35:37;;;;;;;9.00;8.30;;;;;;;;;;4986489;28;24390;-63
2021/08/16 05:38:03;;;;;;;7.50;6.90;;;;;;;;;;4984223;28;24408;-63
2021/08/16 05:40:28;;;;;;;8.13;7.53;;;;;;;;;;4982652;28;24421;-63
2021/08/16 05:42:53;;;;;;;8.60;8.00;;;;;;;;;;4980807;28;24397;-64
2021/08/16 05:45:18;;;;;;;8.53;7.83;;;;;;;;;;4963024;28;25003;-64
2021/08/16 05:47:43;;;;;;;8.00;7.40;;;;;;;;;;4983932;28;24499;-63
2021/08/16 05:50:09;;;;;;;7.40;6.80;;;;;;;;;;4985684;28;24495;-65
2021/08/16 05:52:34;;;;;;;8.20;7.60;;;;;;;;;;4984124;28;24392;-64
2021/08/16 05:54:59;;;;;;;7.80;7.20;;;;;;;;;;4979971;28;24430;-63
2021/08/16 05:57:24;;;;;;;7.13;6.63;;;;;;;;;;4980415;28;24421;-64
2021/08/16 05:59:50;;;;;;;7.10;6.60;;;;;;;;;;4982139;28;24397;-64
2021/08/16 06:02:15;;;;;;;7.67;7.07;;;;;;;;;;4985490;28;24396;-64
2021/08/16 06:04:40;;;;;;;6.80;6.20;;;;;;;;;;4985880;28;24411;-63
2021/08/16 06:07:05;;;;;;;6.80;6.30;;;;;;;;;;4980141;28;24398;-63
2021/08/16 06:09:30;;;;;;;8.00;7.40;;;;;;;;;;4980648;28;25001;-63
2021/08/16 06:11:55;;;;;;;7.47;6.87;;;;;;;;;;4980331;28;24401;-63
2021/08/16 06:14:20;;;;;;;6.60;6.10;;;;;;;;;;4985256;28;25018;-63
2021/08/16 06:16:46;;;;;;;6.65;6.15;;;;;;;;;;4985165;28;24405;-63
2021/08/16 06:19:11;;;;;;;6.73;6.23;;;;;;;;;;4979997;28;24459;-63
2021/08/16 06:21:42;;;;;;;6.90;6.40;;;;;;;;;;4981957;28;24452;-63
2021/08/16 06:24:07;;;;;;;6.40;5.90;;;;;;;;;;4976097;28;24962;-63
2021/08/16 06:26:32;;;;;;;6.75;6.25;;;;;;;;;;4983664;28;24408;-63
2021/08/16 06:28:57;;;;;;;5.88;5.47;;;;;;;;;;4983456;28;24772;-64
2021/08/16 06:31:22;;;;;;;7.95;7.25;;;;;;;;;;4983452;28;25085;-63
2021/08/16 06:33:48;;;;;;;7.50;6.90;;;;;;;;;;4981354;28;24489;-62
2021/08/16 06:36:13;;;;;;;8.48;7.68;;;;;;;;;;4979522;28;24757;-62
2021/08/16 06:38:38;;;;;;;7.50;6.90;;;;;;;;;;4979953;28;25009;-62
2021/08/16 06:41:04;;;;;;;7.40;6.70;;;;;;;;;;4981453;28;24459;-63
2021/08/16 06:43:30;;;;;;;8.20;7.45;;;;;;;;;;4984918;28;24475;-64
2021/08/16 06:45:55;;;;;;;7.60;7.00;;;;;;;;;;4981415;28;24417;-63
2021/08/16 06:48:20;;;;;;;6.40;5.90;;;;;;;;;;4979265;28;25358;-65
2021/08/16 06:50:46;;;;;;;8.15;7.45;;;;;;;;;;4979338;28;24428;-64
2021/08/16 06:53:13;;;;;;;6.20;5.70;;;;;;;;;;4982955;28;24725;-65
2021/08/16 06:55:38;;;;;;;7.60;6.90;;;;;;;;;;4985049;28;24476;-65
2021/08/16 06:58:03;;;;;;;7.50;6.90;;;;;;;;;;4981118;28;25904;-65
2021/08/16 07:00:28;;;;;;;7.40;6.80;;;;;;;;;;4979530;28;24393;-65
2021/08/16 07:02:54;;;;;;;6.70;6.20;;;;;;;;;;4979550;28;24443;-65
2021/08/16 07:05:19;;;;;;;6.60;6.10;;;;;;;;;;4980668;28;24396;-65
2021/08/16 07:07:46;;;;;;;6.77;6.27;;;;;;;;;;4984797;28;24417;-65
2021/08/16 07:10:11;;;;;;;6.88;6.28;;;;;;;;;;4981128;28;24395;-65
2021/08/16 07:12:37;;;;;;;7.50;6.90;;;;;;;;;;4980894;28;24591;-65
2021/08/16 07:15:02;;;;;;;6.20;5.70;;;;;;;;;;4979183;28;24476;-64
2021/08/16 07:17:27;;;;;;;6.50;6.00;;;;;;;;;;4978917;28;24452;-64
2021/08/16 07:19:52;;;;;;;6.40;5.90;;;;;;;;;;4982830;28;24818;-64
2021/08/16 07:22:17;;;;;;;7.70;7.00;;;;;;;;;;4984138;28;24975;-64
2021/08/16 07:24:43;;;;;;;6.87;6.30;;;;;;;;;;4980746;28;25051;-64
2021/08/16 07:27:08;;;;;;;7.20;6.60;;;;;;;;;;4978994;28;24397;-65
2021/08/16 07:29:33;;;;;;;7.70;7.10;;;;;;;;;;4979656;28;24436;-65
2021/08/16 07:31:58;;;;;;;7.45;6.85;;;;;;;;;;4982058;28;24409;-64
2021/08/16 07:34:23;;;;;;;6.90;6.40;;;;;;;;;;4987345;28;24404;-64
2021/08/16 07:36:49;;;;;;;6.10;5.70;;;;;;;;;;4986657;28;24907;-64
2021/08/16 07:39:15;;;;;;;7.57;6.97;;;;;;;;;;4985708;28;24389;-64
2021/08/16 07:41:40;;;;;;;10.03;7.67;;;;;;;;;;4984282;28;24483;-64
2021/08/16 07:44:05;;;;;;;9.20;8.40;;;;;;;;;;4982059;28;24492;-63
2021/08/16 07:46:30;;;;;;;9.23;8.43;;;;;;;;;;4984546;28;24400;-64
2021/08/16 07:48:56;;;;;;;8.48;7.78;;;;;;;;;;4985693;28;24443;-64
2021/08/16 07:51:21;;;;;;;8.00;7.30;;;;;;;;;;4986302;28;24391;-64
2021/08/16 07:53:49;;;;;;;11.30;8.80;;;;;;;;;;4984297;28;24435;-64
2021/08/16 07:56:14;;;;;;;9.30;8.48;;;;;;;;;;4984460;28;24396;-64
2021/08/16 07:58:39;;;;;;;9.18;8.38;;;;;;;;;;4986068;28;24807;-64
2021/08/16 08:01:04;;;;;;;8.10;7.50;;;;;;;;;;4986032;28;24408;-65
2021/08/16 08:03:30;;;;;;;7.82;7.22;;;;;;;;;;4987925;28;24397;-64
2021/08/16 08:05:55;;;;;;;6.55;6.05;;;;;;;;;;4982233;28;24808;-64
2021/08/16 08:08:21;;;;;;;7.00;6.40;;;;;;;;;;4982119;28;24784;-64
2021/08/16 08:10:46;;;;;;;6.10;5.50;;;;;;;;;;4982472;28;24744;-65
2021/08/16 08:13:12;;;;;;;6.30;5.80;;;;;;;;;;4987416;28;24745;-64
2021/08/16 08:15:37;;;;;;;6.32;5.47;;;;;;;;;;4987619;28;24552;-65
2021/08/16 08:18:03;;;;;;;5.60;5.20;;;;;;;;;;4982075;28;25129;-64
2021/08/16 08:20:28;;;;;;;6.30;5.80;;;;;;;;;;4981727;28;24484;-64
2021/08/16 08:22:53;;;;;;;7.63;6.93;;;;;;;;;;4982292;28;24413;-64
2021/08/16 08:25:18;;;;;;;7.83;7.03;;;;;;;;;;4987256;28;24893;-64
2021/08/16 08:27:43;;;;;;;8.93;8.10;;;;;;;;;;4987574;28;24405;-63
2021/08/16 08:30:09;;;;;;;7.73;7.23;;;;;;;;;;4981968;28;24420;-64
2021/08/16 08:32:44;;;;;;;9.60;8.70;;;;;;;;;;4982168;28;24487;-64
2021/08/16 08:35:09;;;;;;;8.75;8.05;;;;;;;;;;4982210;28;24713;-64
2021/08/16 08:37:34;;;;;;;8.73;8.00;;;;;;;;;;4982054;28;25355;-63
2021/08/16 08:40:00;;;;;;;9.27;8.48;;;;;;;;;;4983430;28;24387;-64
2021/08/16 08:42:25;;;;;;;9.27;8.48;;;;;;;;;;4985668;28;24547;-65
2021/08/16 08:44:50;;;;;;;9.10;8.30;;;;;;;;;;4983176;28;24389;-64
2021/08/16 08:47:15;;;;;;;8.33;7.70;;;;;;;;;;4981359;28;24479;-64
2021/08/16 08:49:41;;;;;;;8.13;7.53;;;;;;;;;;4983169;28;24834;-64
2021/08/16 08:52:06;;;;;;;9.30;8.60;;;;;;;;;;4981601;28;24409;-63
2021/08/16 08:54:34;;;;;;;9.37;8.57;;;;;;;;;;4986195;28;25007;-64
2021/08/16 08:56:59;;;;;;;10.00;9.00;;;;;;;;;;4984853;28;24954;-64
2021/08/16 08:59:24;;;;;;;9.40;8.60;;;;;;;;;;4981183;28;24408;-65
2021/08/16 09:01:54;;;;;;;8.80;8.10;;;;;;;;;;4981147;28;24429;-66
2021/08/16 09:04:19;;;;;;;8.32;7.72;;;;;;;;;;4982834;28;24393;-65
2021/08/16 09:06:45;;;;;;;9.07;8.17;;;;;;;;;;4986930;28;24460;-65
2021/08/16 09:09:10;;;;;;;8.70;7.80;;;;;;;;;;4982697;28;25175;-65
2021/08/16 09:11:35;;;;;;;7.70;7.00;;;;;;;;;;4983238;28;24752;-65
2021/08/16 09:14:03;;;;;;;9.53;8.73;;;;;;;;;;4980957;28;24401;-65
2021/08/16 09:16:29;;;;;;;8.80;8.10;;;;;;;;;;4980707;28;24949;-65
2021/08/16 09:18:54;;;;;;;7.70;6.90;;;;;;;;;;4984671;28;24396;-65
2021/08/16 09:21:27;;;;;;;8.27;7.57;;;;;;;;;;4986130;28;24847;-65
2021/08/16 09:23:53;;;;;;;7.82;7.22;;;;;;;;;;4982332;28;24463;-65
2021/08/16 09:26:24;;;;;;;7.60;6.90;;;;;;;;;;4980714;28;24447;-65
2021/08/16 09:28:49;;;;;;;6.90;6.40;;;;;;;;;;4981616;28;24815;-65
2021/08/16 09:31:15;;;;;;;7.77;7.17;;;;;;;;;;4982206;28;24943;-65
2021/08/16 09:33:50;;;;;;;6.80;6.20;;;;;;;;;;4986410;28;24454;-64
2021/08/16 09:36:16;;;;;;;7.07;6.47;;;;;;;;;;4986011;28;24505;-65
2021/08/16 09:38:41;;;;;;;7.03;6.43;;;;;;;;;;4982335;28;24492;-65
2021/08/16 09:41:19;;;;;;;7.57;6.90;;;;;;;;;;4980852;28;25020;-65
2021/08/16 09:43:44;;;;;;;6.93;6.43;;;;;;;;;;4982102;28;24420;-65
2021/08/16 09:46:13;;;;;;;7.03;6.43;;;;;;;;;;4985822;28;24822;-65
2021/08/16 09:48:38;;;;;;;7.05;6.45;;;;;;;;;;4985647;28;24524;-65
2021/08/16 09:51:03;;;;;;;7.00;6.50;;;;;;;;;;4980195;28;24488;-65
2021/08/16 09:53:29;;;;;;;8.00;7.30;;;;;;;;;;4979885;28;24425;-63
2021/08/16 09:56:01;;;;;;;7.10;6.40;;;;;;;;;;4980074;28;24416;-64
2021/08/16 09:58:26;;;;;;;6.47;5.97;;;;;;;;;;4983931;28;24448;-64
2021/08/16 10:00:52;;;;;;;7.20;6.60;;;;;;;;;;4984193;28;24475;-64
2021/08/16 10:03:17;;;;;;;7.30;6.30;;;;;;;;;;4983822;28;24453;-64
2021/08/16 10:05:45;;;;;;;7.07;6.40;;;;;;;;;;4982004;28;24412;-65
2021/08/16 10:08:11;;;;;;;6.80;6.10;;;;;;;;;;4980188;28;24486;-65
2021/08/16 10:10:36;;;;;;;6.30;5.80;;;;;;;;;;4983481;28;24463;-65
2021/08/16 10:13:02;;;;;;;7.43;6.72;;;;;;;;;;4983828;28;24408;-65
2021/08/16 10:15:29;;;;;;;7.80;7.10;;;;;;;;;;4981781;28;25544;-64
2021/08/16 10:17:54;;;;;;;6.70;6.20;;;;;;;;;;4980102;28;24397;-64
2021/08/16 10:20:19;;;;;;;7.67;6.97;;;;;;;;;;4979792;28;24764;-63
2021/08/16 10:22:45;;;;;;;7.33;6.63;;;;;;;;;;4981443;28;24936;-64
2021/08/16 10:25:14;;;;;;;7.33;6.83;;;;;;;;;;4985141;28;24720;-63
2021/08/16 10:27:39;;;;;;;8.40;7.70;;;;;;;;;;4983452;28;24440;-63
2021/08/16 10:30:05;;;;;;;7.13;6.53;;;;;;;;;;4979837;28;25842;-64
2021/08/16 10:32:30;;;;;;;6.60;6.00;;;;;;;;;;4979827;28;24493;-64
2021/08/16 10:35:04;;;;;;;7.37;6.70;;;;;;;;;;4979818;28;24939;-63
2021/08/16 10:37:34;;;;;;;7.20;6.60;;;;;;;;;;4981361;28;24543;-64
2021/08/16 10:39:59;;;;;;;6.90;6.40;;;;;;;;;;4984982;28;24416;-64
2021/08/16 10:42:31;;;;;;;7.10;6.50;;;;;;;;;;4983095;28;24397;-65
2021/08/16 10:45:00;;;;;;;7.57;7.00;;;;;;;;;;4979422;28;24444;-65
2021/08/16 10:47:26;;;;;;;7.13;6.50;;;;;;;;;;4979250;28;24409;-63
2021/08/16 10:50:03;;;;;;;7.20;6.60;;;;;;;;;;4981519;28;24879;-64
2021/08/16 10:52:28;;;;;;;7.45;6.75;;;;;;;;;;4984661;28;24448;-64
2021/08/16 10:54:53;;;;;;;6.70;6.20;;;;;;;;;;4982791;28;24425;-64
2021/08/16 10:57:19;;;;;;;7.80;7.10;;;;;;;;;;4979535;28;24381;-64
2021/08/16 10:59:45;;;;;;;7.60;7.00;;;;;;;;;;4980957;28;24413;-64
2021/08/16 11:02:10;;;;;;;7.80;7.00;;;;;;;;;;4979639;28;24397;-64
2021/08/16 11:04:36;;;;;;;8.05;7.35;;;;;;;;;;4983718;28;24451;-64
2021/08/16 11:07:04;;;;;;;6.80;6.20;;;;;;;;;;4981984;28;25025;-64
2021/08/16 11:09:30;;;;;;;8.30;7.60;;;;;;;;;;4982756;28;24846;-64
2021/08/16 11:12:04;;;;;;;8.50;7.80;;;;;;;;;;4979412;28;24475;-64
2021/08/16 11:14:30;;;;;;;8.50;7.80;;;;;;;;;;4979136;28;24493;-65
2021/08/16 11:16:55;;;;;;;8.00;7.30;;;;;;;;;;4978838;28;24512;-64
2021/08/16 11:19:21;;;;;;;7.40;6.90;;;;;;;;;;4984559;28;24381;-64
2021/08/16 11:21:57;;;;;;;7.20;6.60;;;;;;;;;;4984385;28;24560;-63
2021/08/16 11:24:30;;;;;;;6.50;5.90;;;;;;;;;;4980755;28;25028;-63
2021/08/16 11:26:56;;;;;;;7.95;7.25;;;;;;;;;;4979171;28;24401;-64
2021/08/16 11:29:23;;;;;;;7.60;6.90;;;;;;;;;;4978924;28;24528;-63
2021/08/16 11:31:52;;;;;;;6.93;6.43;;;;;;;;;;4979109;28;24396;-64
2021/08/16 11:34:18;;;;;;;10.30;6.30;;;;;;;;;;4981057;28;24401;-64
2021/08/16 11:36:43;;;;;;;7.50;6.80;;;;;;;;;;4980348;28;24409;-64
2021/08/16 11:39:08;;;;;;;7.27;6.67;;;;;;;;;;4984326;28;24985;-65
2021/08/16 11:41:34;;;;;;;8.10;7.40;;;;;;;;;;4982340;28;25167;-64
2021/08/16 11:44:12;;;;;;;6.88;6.20;;;;;;;;;;4979145;28;24484;-64
2021/08/16 11:46:37;;;;;;;6.60;6.00;;;;;;;;;;4980381;28;24997;-63
2021/08/16 11:49:06;;;;;;;8.00;6.10;;;;;;;;;;4978554;28;24448;-63
2021/08/16 11:51:32;;;;;;;6.13;5.53;;;;;;;;;;4981977;28;24959;-64
2021/08/16 11:53:57;;;;;;;6.95;5.85;;;;;;;;;;4982264;28;24440;-63
2021/08/16 11:56:23;;;;;;;6.35;5.75;;;;;;;;;;4982379;28;24424;-64
2021/08/16 11:58:48;;;;;;;6.28;5.78;;;;;;;;;;4980204;28;24954;-64
2021/08/16 12:01:13;;;;;;;5.30;4.80;;;;;;;;;;4978575;28;24420;-63
2021/08/16 12:03:38;;;;;;;6.43;5.83;;;;;;;;;;4984120;28;24455;-64
2021/08/16 12:06:04;;;;;;;6.87;5.90;;;;;;;;;;4982325;28;24924;-65
2021/08/16 12:08:29;;;;;;;6.00;5.50;;;;;;;;;;4982283;28;25051;-64
2021/08/16 12:10:55;;;;;;;6.03;5.53;;;;;;;;;;4978518;28;24516;-64
2021/08/16 12:13:22;;;;;;;6.40;5.80;;;;;;;;;;4978651;28;24404;-64
2021/08/16 12:15:47;;;;;;;5.55;5.05;;;;;;;;;;4979830;28;24455;-65
2021/08/16 12:18:13;;;;;;;6.60;5.73;;;;;;;;;;4986250;28;24931;-65
2021/08/16 12:20:47;;;;;;;7.80;5.40;;;;;;;;;;4987647;28;24417;-65
2021/08/16 12:23:22;;;;;;;6.03;5.43;;;;;;;;;;4985609;28;24421;-62
2021/08/16 12:25:47;;;;;;;5.90;5.30;;;;;;;;;;4981744;28;24393;-65
2021/08/16 12:28:13;;;;;;;6.90;5.20;;;;;;;;;;4982067;28;25013;-64
2021/08/16 12:30:38;;;;;;;6.65;5.07;;;;;;;;;;4983885;28;24461;-63
2021/08/16 12:33:10;;;;;;;6.00;5.30;;;;;;;;;;4985612;28;24420;-63
2021/08/16 12:35:35;;;;;;;6.30;5.50;;;;;;;;;;4987090;28;24401;-63
2021/08/16 12:38:01;;;;;;;8.07;5.60;;;;;;;;;;4983778;28;24408;-63
2021/08/16 12:40:26;;;;;;;5.97;5.37;;;;;;;;;;4981849;28;24404;-63
2021/08/16 12:42:54;;;;;;;6.00;5.40;;;;;;;;;;4981633;28;24417;-64
2021/08/16 12:45:20;;;;;;;5.60;5.10;;;;;;;;;;4983501;28;24393;-64
2021/08/16 12:47:45;;;;;;;8.65;4.70;;;;;;;;;;4986987;28;24969;-64
2021/08/16 12:50:11;;;;;;;5.57;5.00;;;;;;;;;;4983580;28;24450;-64
2021/08/16 12:52:36;;;;;;;6.85;5.00;;;;;;;;;;4983039;28;24988;-63
2021/08/16 12:55:02;;;;;;;6.37;4.70;;;;;;;;;;4981454;28;24524;-63
2021/08/16 12:57:27;;;;;;;4.80;4.30;;;;;;;;;;4985088;28;24432;-63
2021/08/16 12:59:52;;;;;;;5.53;4.53;;;;;;;;;;4984982;28;25033;-65
2021/08/16 13:02:21;;;;;;;5.63;4.67;;;;;;;;;;4983302;28;24484;-63
2021/08/16 13:04:47;;;;;;;4.80;4.40;;;;;;;;;;4981302;28;24408;-64
2021/08/16 13:07:12;;;;;;;5.67;4.57;;;;;;;;;;4983411;28;24424;-64
2021/08/16 13:09:37;;;;;;;7.07;4.70;;;;;;;;;;4980981;28;24969;-63
2021/08/16 13:12:02;;;;;;;4.95;4.45;;;;;;;;;;4986635;28;24405;-64
2021/08/16 13:14:27;;;;;;;5.65;4.00;;;;;;;;;;4984977;28;24469;-63
2021/08/16 13:16:53;;;;;;;5.63;4.00;;;;;;;;;;4981000;28;24608;-64
2021/08/16 13:19:18;;;;;;;4.60;3.70;;;;;;;;;;4981111;28;24464;-63
2021/08/16 13:21:44;;;;;;;4.00;3.40;;;;;;;;;;4982839;28;24965;-63
2021/08/16 13:24:09;;;;;;;3.22;2.92;;;;;;;;;;4986466;28;24405;-63
2021/08/16 13:26:34;;;;;;;4.70;3.40;;;;;;;;;;4986096;28;24978;-64
2021/08/16 13:28:59;;;;;;;4.97;3.80;;;;;;;;;;4980742;28;24475;-64
2021/08/16 13:31:24;;;;;;;4.20;3.13;;;;;;;;;;4981044;28;24978;-64
2021/08/16 13:33:50;;;;;;;4.10;3.20;;;;;;;;;;4981037;28;24440;-64
2021/08/16 13:36:15;;;;;;;3.67;3.27;;;;;;;;;;4986195;28;24488;-64
2021/08/16 13:38:40;;;;;;;5.57;3.20;;;;;;;;;;4986199;28;24484;-64
2021/08/16 13:41:05;;;;;;;3.60;3.20;;;;;;;;;;4980878;28;24404;-64
2021/08/16 13:43:31;;;;;;;2.83;2.50;;;;;;;;;;4980738;28;24526;-63
2021/08/16 13:45:56;;;;;;;3.67;3.17;;;;;;;;;;4980549;28;24401;-63
2021/08/16 13:48:21;;;;;;;3.65;2.30;;;;;;;;;;4980502;28;24533;-63
2021/08/16 13:50:46;;;;;;;3.03;2.30;;;;;;;;;;4982068;28;24398;-63
2021/08/16 13:53:11;;;;;;;3.27;2.30;;;;;;;;;;4985879;28;24982;-64
2021/08/16 13:55:36;;;;;;;3.97;2.88;;;;;;;;;;4984013;28;24946;-63
2021/08/16 13:58:02;;;;;;;3.57;2.53;;;;;;;;;;4980649;28;25025;-63
2021/08/16 14:00:27;;;;;;;3.00;2.60;;;;;;;;;;4980224;28;24397;-62
2021/08/16 14:02:53;;;;;;;3.60;2.73;;;;;;;;;;4980361;28;24408;-62
2021/08/16 14:05:18;;;;;;;2.80;2.30;;;;;;;;;;4985812;28;24405;-61
2021/08/16 14:07:43;;;;;;;4.70;2.60;;;;;;;;;;4967758;28;24433;-61
2021/08/16 14:10:09;;;;;;;5.10;2.88;;;;;;;;;;4980101;28;24823;-62
2021/08/16 14:12:35;;;;;;;3.30;2.40;;;;;;;;;;4980053;28;24381;-62
2021/08/16 14:15:00;;;;;;;4.25;2.30;;;;;;;;;;4983865;28;25603;-63
2021/08/16 14:17:26;;;;;;;2.97;2.27;;;;;;;;;;4985263;28;24394;-62
2021/08/16 14:19:51;;;;;;;3.95;2.65;;;;;;;;;;4979865;28;24401;-62
2021/08/16 14:22:16;;;;;;;4.13;2.20;;;;;;;;;;4980134;28;24397;-62
2021/08/16 14:24:41;;;;;;;3.80;2.40;;;;;;;;;;4981493;28;24922;-61
2021/08/16 14:27:06;;;;;;;3.78;2.28;;;;;;;;;;4983210;28;24382;-62
2021/08/16 14:29:32;;;;;;;2.55;2.20;;;;;;;;;;4985341;28;24504;-63
2021/08/16 14:31:57;;;;;;;4.13;2.50;;;;;;;;;;4979951;28;24471;-63
2021/08/16 14:34:22;;;;;;;2.60;2.10;;;;;;;;;;4979755;28;24393;-62